createdAt,value
2023-04-27T00:04:30.193Z,1.06
2023-04-27T00:09:37.189Z,1.23
2023-04-27T00:14:44.630Z,1.23
2023-04-27T00:19:51.901Z,1.18
2023-04-27T00:24:59.337Z,1.18
2023-04-27T00:30:06.726Z,1.12
2023-04-27T00:35:14.021Z,1.06
2023-04-27T00:40:21.221Z,1.02
2023-04-27T00:45:28.675Z,1.12
2023-04-27T00:50:35.969Z,1.09
2023-04-27T00:55:43.370Z,1.18
2023-04-27T01:00:50.742Z,1.03
2023-04-27T01:05:58.085Z,1.33
2023-04-27T01:11:05.431Z,1.12
2023-04-27T01:16:13.162Z,1.03
2023-04-27T01:21:20.392Z,1.19
2023-04-27T01:26:27.821Z,1.09
2023-04-27T01:31:35.239Z,1.10
2023-04-27T01:36:42.585Z,1.14
2023-04-27T01:41:49.923Z,1.17
2023-04-27T01:46:57.254Z,1.07
2023-04-27T01:52:04.500Z,0.94
2023-04-27T01:57:11.947Z,1.18
2023-04-27T02:02:19.285Z,1.12
2023-04-27T02:07:26.762Z,0.95
2023-04-27T02:12:34.022Z,0.88
2023-04-27T02:17:41.532Z,0.96
2023-04-27T02:22:48.824Z,1.05
2023-04-27T02:27:56.224Z,1.03
2023-04-27T02:33:03.010Z,1.15
2023-04-27T02:38:10.525Z,1.04
2023-04-27T02:43:17.717Z,1.07
2023-04-27T02:48:25.059Z,1.05
2023-04-27T02:53:32.402Z,1.06
2023-04-27T02:58:39.803Z,1.10
2023-04-27T03:03:47.391Z,0.96
2023-04-27T03:08:54.692Z,0.85
2023-04-27T03:14:02.085Z,0.91
2023-04-27T03:19:09.543Z,0.97
2023-04-27T03:24:16.842Z,0.88
2023-04-27T03:29:24.207Z,0.83
2023-04-27T03:34:31.388Z,0.78
2023-04-27T03:39:38.908Z,0.96
2023-04-27T03:44:46.285Z,0.87
2023-04-27T03:49:53.691Z,0.78
2023-04-27T03:55:00.963Z,0.91
2023-04-27T04:00:08.422Z,0.86
2023-04-27T04:05:15.937Z,0.86
2023-04-27T04:10:23.156Z,1.03
2023-04-27T04:15:30.386Z,1.03
2023-04-27T04:20:38.168Z,0.93
2023-04-27T04:25:45.460Z,1.14
2023-04-27T04:30:53.017Z,1.01
2023-04-27T04:36:00.235Z,0.91
2023-04-27T04:41:07.700Z,1.17
2023-04-27T04:46:14.978Z,0.99
2023-04-27T04:51:22.232Z,0.88
2023-04-27T04:56:29.534Z,0.95
2023-04-27T05:01:36.948Z,0.95
2023-04-27T05:06:44.300Z,0.80
2023-04-27T05:11:51.796Z,0.78
2023-04-27T05:16:59.000Z,0.77
2023-04-27T05:22:06.705Z,0.76
2023-04-27T05:27:13.863Z,0.75
2023-04-27T05:32:21.276Z,0.87
2023-04-27T05:37:28.452Z,0.81
2023-04-27T05:42:35.879Z,0.83
2023-04-27T05:52:50.207Z,0.79
2023-04-27T05:58:07.701Z,0.74
2023-04-27T06:03:04.443Z,0.86
2023-04-27T06:08:11.580Z,1.05
2023-04-27T06:13:18.963Z,0.75
2023-04-27T06:18:26.289Z,0.84
2023-04-27T06:23:33.808Z,0.96
2023-04-27T06:28:41.068Z,0.89
2023-04-27T06:33:48.490Z,0.77
2023-04-27T06:38:55.811Z,0.74
2023-04-27T06:44:03.270Z,0.80
2023-04-27T06:49:10.785Z,0.98
2023-04-27T06:54:18.096Z,1.00
2023-04-27T06:59:25.389Z,0.84
2023-04-27T07:04:32.912Z,0.75
2023-04-27T07:09:40.159Z,0.69
2023-04-27T07:14:47.612Z,0.75
2023-04-27T07:19:54.946Z,0.77
2023-04-27T07:25:02.500Z,0.74
2023-04-27T07:30:09.819Z,0.73
2023-04-27T07:35:17.294Z,0.71
2023-04-27T07:40:24.591Z,0.60
2023-04-27T07:45:32.142Z,0.76
2023-04-27T07:50:39.265Z,0.70
2023-04-27T07:55:46.737Z,0.65
2023-04-27T08:00:54.050Z,0.68
2023-04-27T08:06:01.617Z,0.67
2023-04-27T08:11:08.235Z,0.76
2023-04-27T08:16:15.770Z,0.64
2023-04-27T08:21:23.113Z,0.74
2023-04-27T08:26:30.546Z,0.64
2023-04-27T08:31:37.982Z,0.61
2023-04-27T08:36:45.254Z,0.62
2023-04-27T08:41:52.485Z,0.71
2023-04-27T08:46:59.966Z,0.70
2023-04-27T08:52:07.264Z,0.65
2023-04-27T08:57:14.852Z,0.58
2023-04-27T09:02:22.159Z,0.62
2023-04-27T09:07:29.698Z,0.65
2023-04-27T09:12:36.975Z,0.61
2023-04-27T09:17:44.385Z,0.60
2023-04-27T09:22:51.559Z,0.69
2023-04-27T09:27:59.003Z,0.61
2023-04-27T09:33:06.338Z,0.62
2023-04-27T09:38:15.438Z,0.63
2023-04-27T09:43:20.798Z,0.60
2023-04-27T09:48:28.185Z,0.54
2023-04-27T09:53:35.425Z,0.61
2023-04-27T09:58:42.716Z,0.59
2023-04-27T10:03:50.061Z,0.67
2023-04-27T10:08:57.274Z,0.56
2023-04-27T10:14:04.483Z,0.59
2023-04-27T10:19:12.148Z,0.58
2023-04-27T10:24:19.296Z,0.59
2023-04-27T10:29:26.662Z,0.60
2023-04-27T10:34:33.813Z,0.69
2023-04-27T10:39:48.514Z,0.69
2023-04-27T10:44:47.706Z,0.66
2023-04-27T10:49:55.255Z,0.52
2023-04-27T10:55:02.465Z,0.60
2023-04-27T11:00:09.929Z,0.57
2023-04-27T11:05:17.142Z,0.66
2023-04-27T11:10:24.492Z,0.68
2023-04-27T11:15:31.754Z,0.54
2023-04-27T11:20:39.197Z,0.70
2023-04-27T11:25:46.465Z,0.58
2023-04-27T11:30:53.712Z,0.58
2023-04-27T11:36:00.885Z,0.56
2023-04-27T11:41:08.353Z,0.62
2023-04-27T11:46:15.621Z,0.74
2023-04-27T11:51:22.912Z,0.50
2023-04-27T11:56:30.115Z,0.56
2023-04-27T12:01:38.456Z,0.58
2023-04-27T12:06:44.260Z,0.62
2023-04-27T12:11:51.547Z,0.62
2023-04-27T12:16:58.816Z,0.59
2023-04-27T12:22:06.239Z,0.72
2023-04-27T12:27:13.431Z,0.60
2023-04-27T12:32:20.766Z,0.58
2023-04-27T12:37:27.900Z,0.76
2023-04-27T12:42:35.350Z,0.85
2023-04-27T12:47:58.224Z,0.70
2023-04-27T12:52:49.351Z,0.98
2023-04-27T12:57:56.472Z,0.81
2023-04-27T13:03:04.030Z,0.64
2023-04-27T13:08:11.033Z,1.31
2023-04-27T13:13:18.429Z,0.57
2023-04-27T13:18:25.708Z,0.59
2023-04-27T13:23:33.148Z,0.71
2023-04-27T13:28:40.279Z,0.70
2023-04-27T13:33:47.588Z,0.87
2023-04-27T13:38:54.788Z,0.73
2023-04-27T13:44:02.179Z,0.90
2023-04-27T13:49:09.334Z,0.96
2023-04-27T13:54:16.697Z,0.64
2023-04-27T13:59:23.804Z,0.53
2023-04-27T14:04:31.333Z,0.58
2023-04-27T14:09:38.271Z,0.58
2023-04-27T14:14:45.590Z,0.61
2023-04-27T14:19:52.816Z,0.59
2023-04-27T14:25:00.335Z,0.49
2023-04-27T14:30:07.499Z,0.67
2023-04-27T14:35:14.740Z,0.70
2023-04-27T14:45:26.302Z,0.73
2023-04-27T14:55:33.916Z,0.52
2023-04-27T15:05:50.881Z,0.59
2023-04-27T15:11:10.455Z,0.67
2023-04-27T15:16:07.805Z,0.59
2023-04-27T15:21:21.092Z,0.59
2023-04-27T15:26:18.400Z,0.59
2023-04-27T15:31:27.319Z,0.56
2023-04-27T15:41:44.351Z,0.69
2023-04-27T15:51:52.905Z,0.59
2023-04-27T16:02:01.813Z,1.01
2023-04-27T16:12:17.819Z,0.55
2023-04-27T16:17:36.622Z,0.55
2023-04-27T16:22:34.003Z,0.74
2023-04-27T16:27:47.055Z,0.60
2023-04-27T16:32:44.434Z,0.96
2023-04-27T16:37:54.654Z,1.07
2023-04-27T16:42:51.970Z,0.85
2023-04-27T16:48:05.317Z,0.70
2023-04-27T16:53:02.677Z,0.79
2023-04-27T16:58:12.900Z,0.63
2023-04-27T17:08:19.918Z,0.79
2023-04-27T17:18:35.103Z,0.74
2023-04-27T17:23:54.947Z,0.96
2023-04-27T17:28:52.303Z,0.76
2023-04-27T17:34:14.702Z,0.68
2023-04-27T17:39:02.064Z,1.00
2023-04-27T17:44:23.487Z,0.79
2023-04-27T17:49:57.287Z,0.83
2023-04-27T17:54:30.224Z,0.76
2023-04-27T17:59:16.134Z,0.92
2023-04-27T18:04:37.279Z,0.89
2023-04-27T18:09:24.554Z,0.68
2023-04-27T18:14:46.184Z,0.76
2023-04-27T18:19:33.508Z,0.73
2023-04-27T18:24:54.552Z,0.67
2023-04-27T18:29:41.786Z,0.74
2023-04-27T18:35:04.365Z,0.78
2023-04-27T18:39:52.957Z,0.78
2023-04-27T18:45:14.747Z,0.66
2023-04-27T18:50:02.263Z,0.72
2023-04-27T18:55:09.411Z,0.74
2023-04-27T19:00:16.737Z,0.80
2023-04-27T19:05:23.943Z,0.74
2023-04-27T19:10:31.271Z,0.94
2023-04-27T19:15:38.506Z,0.81
2023-04-27T19:20:46.010Z,0.74
2023-04-27T19:25:55.192Z,1.03
2023-04-27T19:31:00.169Z,0.95
2023-04-27T19:36:07.216Z,0.90
2023-04-27T19:41:14.675Z,0.91
2023-04-27T19:46:21.896Z,0.78
2023-04-27T19:51:29.082Z,0.89
2023-04-27T19:56:36.250Z,1.12
2023-04-27T20:01:43.638Z,1.25
2023-04-27T20:06:50.803Z,1.23
2023-04-27T20:11:58.230Z,1.24
2023-04-27T20:17:05.394Z,1.19
2023-04-27T20:22:12.842Z,1.39
2023-04-27T20:27:19.993Z,1.40
2023-04-27T20:32:27.216Z,1.14
2023-04-27T20:37:34.364Z,1.13
2023-04-27T20:42:41.636Z,1.08
2023-04-27T20:47:48.800Z,1.18
2023-04-27T20:52:56.118Z,1.32
2023-04-27T20:58:03.280Z,1.18
2023-04-27T21:03:10.722Z,1.19
2023-04-27T21:08:17.758Z,1.19
2023-04-27T21:13:25.065Z,1.21
2023-04-27T21:18:32.331Z,1.22
2023-04-27T21:23:39.585Z,1.15
2023-04-27T21:28:46.757Z,1.30
2023-04-27T21:33:54.040Z,1.39
2023-04-27T21:39:01.237Z,1.33
2023-04-27T21:44:08.639Z,1.46
2023-04-27T21:49:15.809Z,1.36
2023-04-27T21:54:23.237Z,1.41
2023-04-27T21:59:30.423Z,1.37
2023-04-27T22:04:38.206Z,1.18
2023-04-27T22:09:44.516Z,1.18
2023-04-27T22:14:51.826Z,1.17
2023-04-27T22:19:59.004Z,1.18
2023-04-27T22:25:06.291Z,1.27
2023-04-27T22:30:13.484Z,1.23
2023-04-27T22:35:26.468Z,1.33
2023-04-27T22:40:27.456Z,1.37
2023-04-27T22:45:36.141Z,1.27
2023-04-27T22:50:41.477Z,1.43
2023-04-27T22:55:48.691Z,1.38
2023-04-27T23:00:55.887Z,1.31
2023-04-27T23:06:03.148Z,1.36
2023-04-27T23:11:10.390Z,1.52
2023-04-27T23:16:17.869Z,1.39
2023-04-27T23:21:24.981Z,1.62
2023-04-27T23:26:32.225Z,1.44
2023-04-27T23:31:39.367Z,1.49
2023-04-27T23:36:46.556Z,1.48
2023-04-27T23:41:53.763Z,1.56
2023-04-27T23:47:01.192Z,1.36
2023-04-27T23:52:08.344Z,1.60
2023-04-27T23:57:15.735Z,1.55
